Terminal Aerodrome Forecast
Issued by NWS

Home | Current Version | Previous Version | Text Only | Print | Product List | Glossary On
Versions: 1 2 3 4 5 6 7 8 9 10 11 12
985
FTUS45 KVEF 261720
TAFBIH
TAF
KBIH 261720Z 2618/2718 16011G20KT P6SM FEW150
     FM262000 17018G25KT P6SM SCT150
     FM270300 33005KT P6SM BKN150
     FM271700 15007KT P6SM SCT200=

USA.gov is the U.S. government's official web portal to all federal, state and local government web resources and services.